sensor_id;sensor_type;location;lat;lon;timestamp;P1;durP1;ratioP1;P2;durP2;ratioP2
22812;SDS011;11573;51.334;3.244;2023-03-01T00:01:03;9.40;;;6.82;;
22812;SDS011;11573;51.334;3.244;2023-03-01T00:03:32;7.68;;;6.28;;
22812;SDS011;11573;51.334;3.244;2023-03-01T00:06:00;11.82;;;6.82;;
22812;SDS011;11573;51.334;3.244;2023-03-01T00:08:28;10.07;;;6.55;;
22812;SDS011;11573;51.334;3.244;2023-03-01T00:11:06;8.55;;;6.57;;
22812;SDS011;11573;51.334;3.244;2023-03-01T00:13:34;8.80;;;6.93;;
22812;SDS011;11573;51.334;3.244;2023-03-01T00:16:05;8.73;;;6.57;;
22812;SDS011;11573;51.334;3.244;2023-03-01T00:18:34;14.77;;;7.60;;
22812;SDS011;11573;51.334;3.244;2023-03-01T00:21:01;9.18;;;7.70;;
22812;SDS011;11573;51.334;3.244;2023-03-01T00:23:28;10.77;;;7.85;;
22812;SDS011;11573;51.334;3.244;2023-03-01T00:25:55;11.20;;;8.75;;
22812;SDS011;11573;51.334;3.244;2023-03-01T00:28:23;13.05;;;9.63;;
22812;SDS011;11573;51.334;3.244;2023-03-01T00:30:50;13.93;;;9.45;;
22812;SDS011;11573;51.334;3.244;2023-03-01T00:33:17;14.55;;;9.68;;
22812;SDS011;11573;51.334;3.244;2023-03-01T00:35:44;15.90;;;10.38;;
22812;SDS011;11573;51.334;3.244;2023-03-01T00:38:12;17.13;;;11.27;;
22812;SDS011;11573;51.334;3.244;2023-03-01T00:40:39;13.50;;;10.57;;
22812;SDS011;11573;51.334;3.244;2023-03-01T00:43:06;16.92;;;11.02;;
22812;SDS011;11573;51.334;3.244;2023-03-01T00:45:33;21.48;;;12.13;;
22812;SDS011;11573;51.334;3.244;2023-03-01T00:48:00;16.98;;;11.55;;
22812;SDS011;11573;51.334;3.244;2023-03-01T00:50:27;20.17;;;12.13;;
22812;SDS011;11573;51.334;3.244;2023-03-01T00:52:55;15.63;;;12.20;;
22812;SDS011;11573;51.334;3.244;2023-03-01T00:55:23;19.65;;;12.48;;
22812;SDS011;11573;51.334;3.244;2023-03-01T00:57:50;19.60;;;12.23;;
22812;SDS011;11573;51.334;3.244;2023-03-01T01:00:18;20.10;;;13.32;;
22812;SDS011;11573;51.334;3.244;2023-03-01T01:02:47;17.92;;;12.68;;
22812;SDS011;11573;51.334;3.244;2023-03-01T01:05:15;30.13;;;13.48;;
22812;SDS011;11573;51.334;3.244;2023-03-01T01:07:47;19.35;;;13.27;;
22812;SDS011;11573;51.334;3.244;2023-03-01T01:10:14;22.00;;;13.88;;
22812;SDS011;11573;51.334;3.244;2023-03-01T01:12:46;16.38;;;12.38;;
22812;SDS011;11573;51.334;3.244;2023-03-01T01:15:13;21.13;;;12.85;;
22812;SDS011;11573;51.334;3.244;2023-03-01T01:17:42;16.73;;;12.30;;
22812;SDS011;11573;51.334;3.244;2023-03-01T01:20:10;20.27;;;13.15;;
22812;SDS011;11573;51.334;3.244;2023-03-01T01:22:37;19.02;;;11.95;;
22812;SDS011;11573;51.334;3.244;2023-03-01T01:25:05;17.40;;;11.73;;
22812;SDS011;11573;51.334;3.244;2023-03-01T01:27:33;19.25;;;12.63;;
22812;SDS011;11573;51.334;3.244;2023-03-01T01:30:00;16.65;;;12.40;;
22812;SDS011;11573;51.334;3.244;2023-03-01T01:32:27;18.27;;;12.88;;
22812;SDS011;11573;51.334;3.244;2023-03-01T01:34:54;16.48;;;11.48;;
22812;SDS011;11573;51.334;3.244;2023-03-01T01:37:21;18.27;;;11.93;;
22812;SDS011;11573;51.334;3.244;2023-03-01T01:39:48;19.08;;;12.23;;
22812;SDS011;11573;51.334;3.244;2023-03-01T01:42:16;18.67;;;12.25;;
22812;SDS011;11573;51.334;3.244;2023-03-01T01:44:45;15.80;;;11.70;;
22812;SDS011;11573;51.334;3.244;2023-03-01T01:47:14;19.00;;;11.88;;
22812;SDS011;11573;51.334;3.244;2023-03-01T01:49:46;19.10;;;11.98;;
22812;SDS011;11573;51.334;3.244;2023-03-01T01:55:02;19.35;;;11.73;;
22812;SDS011;11573;51.334;3.244;2023-03-01T01:57:52;17.70;;;11.05;;
22812;SDS011;11573;51.334;3.244;2023-03-01T02:00:24;17.42;;;12.18;;
22812;SDS011;11573;51.334;3.244;2023-03-01T02:02:56;18.77;;;12.07;;
22812;SDS011;11573;51.334;3.244;2023-03-01T02:06:03;18.13;;;11.40;;
22812;SDS011;11573;51.334;3.244;2023-03-01T02:08:33;17.83;;;11.75;;
22812;SDS011;11573;51.334;3.244;2023-03-01T02:11:04;17.63;;;11.38;;
22812;SDS011;11573;51.334;3.244;2023-03-01T02:13:32;19.52;;;12.88;;
22812;SDS011;11573;51.334;3.244;2023-03-01T02:16:04;19.00;;;12.45;;
22812;SDS011;11573;51.334;3.244;2023-03-01T02:18:35;21.80;;;13.17;;
22812;SDS011;11573;51.334;3.244;2023-03-01T02:23:50;17.52;;;13.70;;
22812;SDS011;11573;51.334;3.244;2023-03-01T02:26:25;20.27;;;13.95;;
22812;SDS011;11573;51.334;3.244;2023-03-01T02:28:54;22.08;;;14.10;;
22812;SDS011;11573;51.334;3.244;2023-03-01T02:31:21;22.83;;;14.35;;
22812;SDS011;11573;51.334;3.244;2023-03-01T02:34:15;20.75;;;14.82;;
22812;SDS011;11573;51.334;3.244;2023-03-01T02:36:44;21.10;;;14.90;;
22812;SDS011;11573;51.334;3.244;2023-03-01T02:39:16;21.83;;;14.65;;
22812;SDS011;11573;51.334;3.244;2023-03-01T02:41:48;23.85;;;14.68;;
22812;SDS011;11573;51.334;3.244;2023-03-01T02:44:18;25.00;;;15.68;;
22812;SDS011;11573;51.334;3.244;2023-03-01T02:46:47;22.95;;;14.77;;
22812;SDS011;11573;51.334;3.244;2023-03-01T02:55:01;26.15;;;16.20;;
22812;SDS011;11573;51.334;3.244;2023-03-01T02:57:37;22.13;;;14.82;;
22812;SDS011;11573;51.334;3.244;2023-03-01T03:00:07;24.15;;;15.70;;
22812;SDS011;11573;51.334;3.244;2023-03-01T03:02:51;27.15;;;15.98;;
22812;SDS011;11573;51.334;3.244;2023-03-01T03:05:23;23.13;;;14.90;;
22812;SDS011;11573;51.334;3.244;2023-03-01T03:07:55;23.55;;;15.27;;
22812;SDS011;11573;51.334;3.244;2023-03-01T03:10:26;20.25;;;14.85;;
22812;SDS011;11573;51.334;3.244;2023-03-01T03:12:57;20.85;;;14.82;;
22812;SDS011;11573;51.334;3.244;2023-03-01T03:15:32;23.92;;;16.08;;
22812;SDS011;11573;51.334;3.244;2023-03-01T03:18:04;24.08;;;14.70;;
22812;SDS011;11573;51.334;3.244;2023-03-01T03:20:33;22.63;;;14.02;;
22812;SDS011;11573;51.334;3.244;2023-03-01T03:23:01;30.25;;;14.45;;
22812;SDS011;11573;51.334;3.244;2023-03-01T03:25:28;20.05;;;14.52;;
22812;SDS011;11573;51.334;3.244;2023-03-01T03:27:56;21.35;;;14.63;;
22812;SDS011;11573;51.334;3.244;2023-03-01T03:30:25;19.52;;;11.85;;
22812;SDS011;11573;51.334;3.244;2023-03-01T03:32:57;19.25;;;12.52;;
22812;SDS011;11573;51.334;3.244;2023-03-01T03:35:26;18.77;;;12.40;;
22812;SDS011;11573;51.334;3.244;2023-03-01T03:37:57;18.52;;;12.05;;
22812;SDS011;11573;51.334;3.244;2023-03-01T03:40:33;17.10;;;10.90;;
22812;SDS011;11573;51.334;3.244;2023-03-01T03:43:01;14.07;;;9.85;;
22812;SDS011;11573;51.334;3.244;2023-03-01T03:45:29;14.90;;;9.68;;
22812;SDS011;11573;51.334;3.244;2023-03-01T03:47:59;14.05;;;9.52;;
22812;SDS011;11573;51.334;3.244;2023-03-01T03:50:27;15.10;;;10.40;;
22812;SDS011;11573;51.334;3.244;2023-03-01T03:52:55;14.93;;;10.15;;
22812;SDS011;11573;51.334;3.244;2023-03-01T03:55:22;13.82;;;10.68;;
22812;SDS011;11573;51.334;3.244;2023-03-01T03:57:49;18.92;;;11.13;;
22812;SDS011;11573;51.334;3.244;2023-03-01T04:00:19;17.70;;;11.95;;
22812;SDS011;11573;51.334;3.244;2023-03-01T04:02:48;17.42;;;12.40;;
22812;SDS011;11573;51.334;3.244;2023-03-01T04:05:17;18.50;;;12.23;;
22812;SDS011;11573;51.334;3.244;2023-03-01T04:07:45;19.20;;;13.05;;
22812;SDS011;11573;51.334;3.244;2023-03-01T04:10:14;21.05;;;13.70;;
22812;SDS011;11573;51.334;3.244;2023-03-01T04:12:43;20.15;;;13.32;;
22812;SDS011;11573;51.334;3.244;2023-03-01T04:15:12;16.73;;;12.35;;
22812;SDS011;11573;51.334;3.244;2023-03-01T04:17:40;18.27;;;12.32;;
22812;SDS011;11573;51.334;3.244;2023-03-01T04:20:12;18.02;;;10.93;;
22812;SDS011;11573;51.334;3.244;2023-03-01T04:25:13;18.95;;;11.13;;
22812;SDS011;11573;51.334;3.244;2023-03-01T04:27:40;16.55;;;11.27;;
22812;SDS011;11573;51.334;3.244;2023-03-01T04:30:08;15.48;;;10.77;;
22812;SDS011;11573;51.334;3.244;2023-03-01T04:32:36;21.83;;;10.88;;
22812;SDS011;11573;51.334;3.244;2023-03-01T04:35:03;16.95;;;11.27;;
22812;SDS011;11573;51.334;3.244;2023-03-01T04:37:30;13.80;;;9.57;;
22812;SDS011;11573;51.334;3.244;2023-03-01T04:39:58;17.08;;;9.98;;
22812;SDS011;11573;51.334;3.244;2023-03-01T04:42:25;18.05;;;10.63;;
22812;SDS011;11573;51.334;3.244;2023-03-01T04:44:52;15.38;;;10.13;;
22812;SDS011;11573;51.334;3.244;2023-03-01T04:47:19;18.52;;;11.25;;
22812;SDS011;11573;51.334;3.244;2023-03-01T04:49:46;19.40;;;10.73;;
22812;SDS011;11573;51.334;3.244;2023-03-01T04:52:13;17.15;;;11.32;;
22812;SDS011;11573;51.334;3.244;2023-03-01T04:54:41;14.27;;;9.85;;
22812;SDS011;11573;51.334;3.244;2023-03-01T04:57:09;13.85;;;9.63;;
22812;SDS011;11573;51.334;3.244;2023-03-01T04:59:36;13.65;;;9.65;;
22812;SDS011;11573;51.334;3.244;2023-03-01T05:02:03;13.95;;;9.80;;
22812;SDS011;11573;51.334;3.244;2023-03-01T05:04:30;17.95;;;9.50;;
22812;SDS011;11573;51.334;3.244;2023-03-01T05:06:57;14.73;;;9.40;;
22812;SDS011;11573;51.334;3.244;2023-03-01T05:09:25;17.67;;;10.38;;
22812;SDS011;11573;51.334;3.244;2023-03-01T05:11:52;17.25;;;9.38;;
22812;SDS011;11573;51.334;3.244;2023-03-01T05:14:19;19.00;;;10.27;;
22812;SDS011;11573;51.334;3.244;2023-03-01T05:16:47;14.52;;;9.68;;
22812;SDS011;11573;51.334;3.244;2023-03-01T05:19:14;16.40;;;10.45;;
22812;SDS011;11573;51.334;3.244;2023-03-01T05:21:49;17.95;;;10.43;;
22812;SDS011;11573;51.334;3.244;2023-03-01T05:24:28;19.25;;;10.57;;
22812;SDS011;11573;51.334;3.244;2023-03-01T05:26:57;18.90;;;10.90;;
22812;SDS011;11573;51.334;3.244;2023-03-01T05:29:25;19.50;;;10.98;;
22812;SDS011;11573;51.334;3.244;2023-03-01T05:31:54;20.42;;;11.30;;
22812;SDS011;11573;51.334;3.244;2023-03-01T05:34:25;17.85;;;11.10;;
22812;SDS011;11573;51.334;3.244;2023-03-01T05:36:53;18.88;;;11.75;;
22812;SDS011;11573;51.334;3.244;2023-03-01T05:39:21;18.17;;;11.43;;
22812;SDS011;11573;51.334;3.244;2023-03-01T05:41:53;14.88;;;11.00;;
22812;SDS011;11573;51.334;3.244;2023-03-01T05:44:20;15.02;;;10.48;;
22812;SDS011;11573;51.334;3.244;2023-03-01T05:46:48;18.73;;;10.45;;
22812;SDS011;11573;51.334;3.244;2023-03-01T05:49:15;16.52;;;10.82;;
22812;SDS011;11573;51.334;3.244;2023-03-01T05:51:45;17.63;;;9.90;;
22812;SDS011;11573;51.334;3.244;2023-03-01T05:54:15;14.80;;;9.25;;
22812;SDS011;11573;51.334;3.244;2023-03-01T05:56:42;12.77;;;8.23;;
22812;SDS011;11573;51.334;3.244;2023-03-01T05:59:10;14.38;;;9.25;;
22812;SDS011;11573;51.334;3.244;2023-03-01T06:01:37;16.45;;;8.82;;
22812;SDS011;11573;51.334;3.244;2023-03-01T06:04:05;14.10;;;9.43;;
22812;SDS011;11573;51.334;3.244;2023-03-01T06:06:36;16.05;;;8.82;;
22812;SDS011;11573;51.334;3.244;2023-03-01T06:09:06;16.40;;;9.07;;
22812;SDS011;11573;51.334;3.244;2023-03-01T06:11:35;15.18;;;9.27;;
22812;SDS011;11573;51.334;3.244;2023-03-01T06:14:03;16.67;;;9.05;;
22812;SDS011;11573;51.334;3.244;2023-03-01T06:16:32;13.73;;;8.88;;
22812;SDS011;11573;51.334;3.244;2023-03-01T06:19:00;13.57;;;9.68;;
22812;SDS011;11573;51.334;3.244;2023-03-01T06:21:27;17.38;;;9.98;;
22812;SDS011;11573;51.334;3.244;2023-03-01T06:23:54;16.92;;;10.05;;
22812;SDS011;11573;51.334;3.244;2023-03-01T06:26:21;13.30;;;8.82;;
22812;SDS011;11573;51.334;3.244;2023-03-01T06:28:48;18.50;;;9.75;;
22812;SDS011;11573;51.334;3.244;2023-03-01T06:31:15;16.83;;;9.65;;
22812;SDS011;11573;51.334;3.244;2023-03-01T06:33:42;18.67;;;9.90;;
22812;SDS011;11573;51.334;3.244;2023-03-01T06:36:10;13.75;;;8.50;;
22812;SDS011;11573;51.334;3.244;2023-03-01T06:38:37;15.57;;;8.45;;
22812;SDS011;11573;51.334;3.244;2023-03-01T06:41:07;14.25;;;8.45;;
22812;SDS011;11573;51.334;3.244;2023-03-01T06:43:34;15.85;;;8.70;;
22812;SDS011;11573;51.334;3.244;2023-03-01T06:46:03;18.52;;;8.57;;
22812;SDS011;11573;51.334;3.244;2023-03-01T06:48:33;12.10;;;8.15;;
22812;SDS011;11573;51.334;3.244;2023-03-01T06:51:00;13.30;;;8.18;;
22812;SDS011;11573;51.334;3.244;2023-03-01T06:53:28;10.60;;;8.10;;
22812;SDS011;11573;51.334;3.244;2023-03-01T06:55:56;14.25;;;7.70;;
22812;SDS011;11573;51.334;3.244;2023-03-01T06:58:24;15.85;;;7.82;;
22812;SDS011;11573;51.334;3.244;2023-03-01T07:00:51;13.30;;;7.55;;
22812;SDS011;11573;51.334;3.244;2023-03-01T07:03:19;20.48;;;7.68;;
22812;SDS011;11573;51.334;3.244;2023-03-01T07:05:48;15.27;;;7.47;;
22812;SDS011;11573;51.334;3.244;2023-03-01T07:08:18;12.98;;;8.00;;
22812;SDS011;11573;51.334;3.244;2023-03-01T07:10:45;11.32;;;7.50;;
22812;SDS011;11573;51.334;3.244;2023-03-01T07:13:12;15.02;;;7.45;;
22812;SDS011;11573;51.334;3.244;2023-03-01T07:15:39;15.15;;;8.38;;
22812;SDS011;11573;51.334;3.244;2023-03-01T07:18:06;12.18;;;7.30;;
22812;SDS011;11573;51.334;3.244;2023-03-01T07:20:34;13.25;;;8.27;;
22812;SDS011;11573;51.334;3.244;2023-03-01T07:23:01;12.23;;;7.65;;
22812;SDS011;11573;51.334;3.244;2023-03-01T07:25:28;20.65;;;8.43;;
22812;SDS011;11573;51.334;3.244;2023-03-01T07:27:55;18.25;;;7.90;;
22812;SDS011;11573;51.334;3.244;2023-03-01T07:30:23;13.48;;;8.18;;
22812;SDS011;11573;51.334;3.244;2023-03-01T07:32:54;13.50;;;9.05;;
22812;SDS011;11573;51.334;3.244;2023-03-01T07:35:22;15.60;;;8.20;;
22812;SDS011;11573;51.334;3.244;2023-03-01T07:37:51;13.40;;;7.57;;
22812;SDS011;11573;51.334;3.244;2023-03-01T07:40:18;12.93;;;7.63;;
22812;SDS011;11573;51.334;3.244;2023-03-01T07:42:46;15.20;;;7.75;;
22812;SDS011;11573;51.334;3.244;2023-03-01T07:45:13;11.57;;;7.43;;
22812;SDS011;11573;51.334;3.244;2023-03-01T07:47:40;15.10;;;7.68;;
22812;SDS011;11573;51.334;3.244;2023-03-01T07:50:07;12.38;;;6.90;;
22812;SDS011;11573;51.334;3.244;2023-03-01T07:52:35;15.05;;;7.35;;
22812;SDS011;11573;51.334;3.244;2023-03-01T07:55:02;13.50;;;7.03;;
22812;SDS011;11573;51.334;3.244;2023-03-01T07:57:29;15.70;;;7.20;;
22812;SDS011;11573;51.334;3.244;2023-03-01T07:59:57;11.68;;;7.10;;
22812;SDS011;11573;51.334;3.244;2023-03-01T08:02:25;10.90;;;6.30;;
22812;SDS011;11573;51.334;3.244;2023-03-01T08:04:52;11.25;;;6.47;;
22812;SDS011;11573;51.334;3.244;2023-03-01T08:07:19;9.40;;;6.40;;
22812;SDS011;11573;51.334;3.244;2023-03-01T08:09:46;10.45;;;6.68;;
22812;SDS011;11573;51.334;3.244;2023-03-01T08:12:13;10.02;;;6.50;;
22812;SDS011;11573;51.334;3.244;2023-03-01T08:14:40;12.25;;;6.65;;
22812;SDS011;11573;51.334;3.244;2023-03-01T08:17:07;9.68;;;5.63;;
22812;SDS011;11573;51.334;3.244;2023-03-01T08:19:35;10.82;;;5.97;;
22812;SDS011;11573;51.334;3.244;2023-03-01T08:22:02;11.60;;;6.05;;
22812;SDS011;11573;51.334;3.244;2023-03-01T08:24:29;9.00;;;5.43;;
22812;SDS011;11573;51.334;3.244;2023-03-01T08:26:56;9.90;;;5.70;;
22812;SDS011;11573;51.334;3.244;2023-03-01T08:29:23;11.18;;;5.65;;
22812;SDS011;11573;51.334;3.244;2023-03-01T08:31:51;6.97;;;5.10;;
22812;SDS011;11573;51.334;3.244;2023-03-01T08:34:19;8.55;;;5.97;;
22812;SDS011;11573;51.334;3.244;2023-03-01T08:36:46;9.10;;;6.50;;
22812;SDS011;11573;51.334;3.244;2023-03-01T08:39:14;8.27;;;5.35;;
22812;SDS011;11573;51.334;3.244;2023-03-01T08:41:43;5.97;;;4.55;;
22812;SDS011;11573;51.334;3.244;2023-03-01T08:44:13;5.43;;;3.95;;
22812;SDS011;11573;51.334;3.244;2023-03-01T08:46:43;5.47;;;3.25;;
22812;SDS011;11573;51.334;3.244;2023-03-01T08:49:14;5.38;;;3.00;;
22812;SDS011;11573;51.334;3.244;2023-03-01T08:51:43;3.58;;;2.85;;
22812;SDS011;11573;51.334;3.244;2023-03-01T08:54:15;5.82;;;3.00;;
22812;SDS011;11573;51.334;3.244;2023-03-01T08:56:44;5.07;;;2.50;;
22812;SDS011;11573;51.334;3.244;2023-03-01T08:59:12;9.15;;;3.60;;
22812;SDS011;11573;51.334;3.244;2023-03-01T09:01:43;6.00;;;2.90;;
22812;SDS011;11573;51.334;3.244;2023-03-01T09:04:11;7.97;;;3.33;;
22812;SDS011;11573;51.334;3.244;2023-03-01T09:06:39;4.88;;;3.20;;
22812;SDS011;11573;51.334;3.244;2023-03-01T09:09:10;5.65;;;3.00;;
22812;SDS011;11573;51.334;3.244;2023-03-01T09:11:42;4.47;;;3.03;;
22812;SDS011;11573;51.334;3.244;2023-03-01T09:14:12;4.97;;;3.10;;
22812;SDS011;11573;51.334;3.244;2023-03-01T09:16:40;4.90;;;3.63;;
22812;SDS011;11573;51.334;3.244;2023-03-01T09:19:07;3.85;;;3.25;;
22812;SDS011;11573;51.334;3.244;2023-03-01T09:21:34;7.45;;;4.35;;
22812;SDS011;11573;51.334;3.244;2023-03-01T09:24:13;9.02;;;4.68;;
22812;SDS011;11573;51.334;3.244;2023-03-01T09:26:41;7.55;;;4.10;;
22812;SDS011;11573;51.334;3.244;2023-03-01T09:29:09;9.73;;;4.68;;
22812;SDS011;11573;51.334;3.244;2023-03-01T09:31:36;5.50;;;4.28;;
22812;SDS011;11573;51.334;3.244;2023-03-01T09:34:04;11.25;;;4.60;;
22812;SDS011;11573;51.334;3.244;2023-03-01T09:36:31;6.57;;;4.07;;
22812;SDS011;11573;51.334;3.244;2023-03-01T09:39:00;5.43;;;4.68;;
22812;SDS011;11573;51.334;3.244;2023-03-01T09:41:42;8.35;;;4.60;;
22812;SDS011;11573;51.334;3.244;2023-03-01T09:46:56;6.32;;;3.88;;
22812;SDS011;11573;51.334;3.244;2023-03-01T09:49:25;6.32;;;3.80;;
22812;SDS011;11573;51.334;3.244;2023-03-01T09:52:06;7.43;;;3.88;;
22812;SDS011;11573;51.334;3.244;2023-03-01T09:54:48;4.85;;;3.85;;
22812;SDS011;11573;51.334;3.244;2023-03-01T10:00:24;6.53;;;4.18;;
22812;SDS011;11573;51.334;3.244;2023-03-01T10:03:13;4.35;;;3.80;;
22812;SDS011;11573;51.334;3.244;2023-03-01T10:08:42;8.13;;;4.40;;
22812;SDS011;11573;51.334;3.244;2023-03-01T10:16:21;7.00;;;4.53;;
22812;SDS011;11573;51.334;3.244;2023-03-01T10:19:10;6.90;;;3.75;;
22812;SDS011;11573;51.334;3.244;2023-03-01T10:21:43;7.43;;;4.38;;
22812;SDS011;11573;51.334;3.244;2023-03-01T10:24:16;4.20;;;3.20;;
22812;SDS011;11573;51.334;3.244;2023-03-01T10:26:50;8.25;;;4.00;;
22812;SDS011;11573;51.334;3.244;2023-03-01T10:29:37;6.40;;;4.05;;
22812;SDS011;11573;51.334;3.244;2023-03-01T10:32:08;10.02;;;5.45;;
22812;SDS011;11573;51.334;3.244;2023-03-01T10:34:38;8.75;;;4.70;;
22812;SDS011;11573;51.334;3.244;2023-03-01T10:37:12;9.13;;;3.90;;
22812;SDS011;11573;51.334;3.244;2023-03-01T10:39:54;6.22;;;3.47;;
22812;SDS011;11573;51.334;3.244;2023-03-01T10:45:32;6.28;;;3.70;;
22812;SDS011;11573;51.334;3.244;2023-03-01T10:51:23;5.57;;;3.85;;
22812;SDS011;11573;51.334;3.244;2023-03-01T10:53:35;5.90;;;3.40;;
22812;SDS011;11573;51.334;3.244;2023-03-01T10:56:14;7.45;;;3.70;;
22812;SDS011;11573;51.334;3.244;2023-03-01T10:59:02;6.18;;;3.50;;
22812;SDS011;11573;51.334;3.244;2023-03-01T11:01:34;5.45;;;3.30;;
22812;SDS011;11573;51.334;3.244;2023-03-01T11:06:33;4.80;;;3.40;;
22812;SDS011;11573;51.334;3.244;2023-03-01T11:09:20;7.07;;;4.20;;
22812;SDS011;11573;51.334;3.244;2023-03-01T11:11:56;4.63;;;3.22;;
22812;SDS011;11573;51.334;3.244;2023-03-01T11:14:25;5.10;;;3.50;;
22812;SDS011;11573;51.334;3.244;2023-03-01T11:16:59;7.88;;;3.60;;
22812;SDS011;11573;51.334;3.244;2023-03-01T11:22:36;5.72;;;4.18;;
22812;SDS011;11573;51.334;3.244;2023-03-01T11:25:07;5.88;;;4.10;;
22812;SDS011;11573;51.334;3.244;2023-03-01T11:27:41;9.13;;;4.00;;
22812;SDS011;11573;51.334;3.244;2023-03-01T11:30:34;5.57;;;3.85;;
22812;SDS011;11573;51.334;3.244;2023-03-01T11:34:10;7.55;;;4.80;;
22812;SDS011;11573;51.334;3.244;2023-03-01T11:36:35;11.60;;;4.38;;
22812;SDS011;11573;51.334;3.244;2023-03-01T11:45:14;6.10;;;4.15;;
22812;SDS011;11573;51.334;3.244;2023-03-01T12:06:48;7.15;;;4.90;;
22812;SDS011;11573;51.334;3.244;2023-03-01T12:14:55;6.80;;;4.43;;
22812;SDS011;11573;51.334;3.244;2023-03-01T12:20:35;6.15;;;5.05;;
22812;SDS011;11573;51.334;3.244;2023-03-01T12:31:54;7.90;;;5.32;;
22812;SDS011;11573;51.334;3.244;2023-03-01T12:35:50;8.23;;;4.85;;
22812;SDS011;11573;51.334;3.244;2023-03-01T12:40:33;6.00;;;5.20;;
22812;SDS011;11573;51.334;3.244;2023-03-01T12:51:25;9.40;;;5.57;;
22812;SDS011;11573;51.334;3.244;2023-03-01T12:53:55;8.93;;;5.93;;
22812;SDS011;11573;51.334;3.244;2023-03-01T12:56:27;7.28;;;5.60;;
22812;SDS011;11573;51.334;3.244;2023-03-01T13:07:03;7.77;;;5.23;;
22812;SDS011;11573;51.334;3.244;2023-03-01T13:09:55;6.43;;;4.55;;
22812;SDS011;11573;51.334;3.244;2023-03-01T13:13:18;8.23;;;5.35;;
22812;SDS011;11573;51.334;3.244;2023-03-01T13:15:26;7.97;;;4.85;;
22812;SDS011;11573;51.334;3.244;2023-03-01T13:18:02;8.25;;;5.30;;
22812;SDS011;11573;51.334;3.244;2023-03-01T13:20:34;9.05;;;5.28;;
22812;SDS011;11573;51.334;3.244;2023-03-01T13:23:23;7.90;;;5.65;;
22812;SDS011;11573;51.334;3.244;2023-03-01T13:31:10;7.15;;;4.88;;
22812;SDS011;11573;51.334;3.244;2023-03-01T13:34:03;8.57;;;5.60;;
22812;SDS011;11573;51.334;3.244;2023-03-01T13:39:03;8.10;;;5.78;;
22812;SDS011;11573;51.334;3.244;2023-03-01T13:46:53;9.25;;;6.15;;
22812;SDS011;11573;51.334;3.244;2023-03-01T13:49:27;8.93;;;6.03;;
22812;SDS011;11573;51.334;3.244;2023-03-01T13:58:04;12.18;;;7.05;;
22812;SDS011;11573;51.334;3.244;2023-03-01T14:00:42;13.55;;;7.03;;
22812;SDS011;11573;51.334;3.244;2023-03-01T14:03:19;8.95;;;6.15;;
22812;SDS011;11573;51.334;3.244;2023-03-01T14:06:07;8.20;;;6.50;;
22812;SDS011;11573;51.334;3.244;2023-03-01T14:17:13;8.52;;;5.55;;
22812;SDS011;11573;51.334;3.244;2023-03-01T14:19:48;13.43;;;7.38;;
22812;SDS011;11573;51.334;3.244;2023-03-01T14:22:24;8.88;;;6.07;;
22812;SDS011;11573;51.334;3.244;2023-03-01T14:27:35;9.10;;;6.30;;
22812;SDS011;11573;51.334;3.244;2023-03-01T14:30:17;8.02;;;6.68;;
22812;SDS011;11573;51.334;3.244;2023-03-01T14:32:55;12.50;;;7.30;;
22812;SDS011;11573;51.334;3.244;2023-03-01T14:35:28;10.30;;;6.75;;
22812;SDS011;11573;51.334;3.244;2023-03-01T14:38:01;9.75;;;6.53;;
22812;SDS011;11573;51.334;3.244;2023-03-01T14:40:31;7.72;;;5.93;;
22812;SDS011;11573;51.334;3.244;2023-03-01T14:43:02;10.15;;;6.78;;
22812;SDS011;11573;51.334;3.244;2023-03-01T14:45:36;13.98;;;7.10;;
22812;SDS011;11573;51.334;3.244;2023-03-01T14:48:04;12.13;;;7.10;;
22812;SDS011;11573;51.334;3.244;2023-03-01T14:50:34;8.52;;;6.68;;
22812;SDS011;11573;51.334;3.244;2023-03-01T14:53:06;11.80;;;5.78;;
22812;SDS011;11573;51.334;3.244;2023-03-01T14:55:48;9.82;;;6.53;;
22812;SDS011;11573;51.334;3.244;2023-03-01T14:58:19;13.90;;;6.30;;
22812;SDS011;11573;51.334;3.244;2023-03-01T15:00:52;19.98;;;11.27;;
22812;SDS011;11573;51.334;3.244;2023-03-01T15:03:33;18.35;;;12.15;;
22812;SDS011;11573;51.334;3.244;2023-03-01T15:06:04;22.20;;;13.93;;
22812;SDS011;11573;51.334;3.244;2023-03-01T15:08:33;19.92;;;13.55;;
22812;SDS011;11573;51.334;3.244;2023-03-01T15:13:51;25.60;;;14.00;;
22812;SDS011;11573;51.334;3.244;2023-03-01T15:19:00;22.13;;;13.63;;
22812;SDS011;11573;51.334;3.244;2023-03-01T15:21:31;17.67;;;12.32;;
22812;SDS011;11573;51.334;3.244;2023-03-01T15:26:50;22.95;;;14.32;;
22812;SDS011;11573;51.334;3.244;2023-03-01T15:29:22;20.20;;;13.50;;
22812;SDS011;11573;51.334;3.244;2023-03-01T15:32:00;23.08;;;14.25;;
22812;SDS011;11573;51.334;3.244;2023-03-01T15:34:37;22.48;;;14.05;;
22812;SDS011;11573;51.334;3.244;2023-03-01T15:37:05;24.42;;;14.48;;
22812;SDS011;11573;51.334;3.244;2023-03-01T15:39:54;23.85;;;13.95;;
22812;SDS011;11573;51.334;3.244;2023-03-01T15:47:47;15.80;;;10.02;;
22812;SDS011;11573;51.334;3.244;2023-03-01T15:50:18;14.75;;;9.00;;
22812;SDS011;11573;51.334;3.244;2023-03-01T15:52:49;15.63;;;8.98;;
22812;SDS011;11573;51.334;3.244;2023-03-01T15:55:22;17.30;;;8.70;;
22812;SDS011;11573;51.334;3.244;2023-03-01T15:57:57;14.10;;;8.45;;
22812;SDS011;11573;51.334;3.244;2023-03-01T16:00:45;13.02;;;9.05;;
22812;SDS011;11573;51.334;3.244;2023-03-01T16:03:26;12.95;;;8.95;;
22812;SDS011;11573;51.334;3.244;2023-03-01T16:05:54;15.63;;;9.27;;
22812;SDS011;11573;51.334;3.244;2023-03-01T16:08:21;12.27;;;8.48;;
22812;SDS011;11573;51.334;3.244;2023-03-01T16:10:49;14.98;;;8.93;;
22812;SDS011;11573;51.334;3.244;2023-03-01T16:13:17;15.48;;;9.38;;
22812;SDS011;11573;51.334;3.244;2023-03-01T16:15:45;14.10;;;9.95;;
22812;SDS011;11573;51.334;3.244;2023-03-01T16:18:12;20.10;;;13.27;;
22812;SDS011;11573;51.334;3.244;2023-03-01T16:20:40;28.63;;;16.23;;
22812;SDS011;11573;51.334;3.244;2023-03-01T16:23:08;23.27;;;14.98;;
22812;SDS011;11573;51.334;3.244;2023-03-01T16:25:37;20.38;;;10.70;;
22812;SDS011;11573;51.334;3.244;2023-03-01T16:28:04;16.13;;;10.32;;
22812;SDS011;11573;51.334;3.244;2023-03-01T16:30:38;20.80;;;11.18;;
22812;SDS011;11573;51.334;3.244;2023-03-01T16:33:06;17.15;;;10.38;;
22812;SDS011;11573;51.334;3.244;2023-03-01T16:35:52;18.63;;;12.02;;
22812;SDS011;11573;51.334;3.244;2023-03-01T16:38:29;25.67;;;14.25;;
22812;SDS011;11573;51.334;3.244;2023-03-01T16:40:57;31.80;;;19.42;;
22812;SDS011;11573;51.334;3.244;2023-03-01T16:43:25;28.70;;;17.23;;
22812;SDS011;11573;51.334;3.244;2023-03-01T16:45:52;24.40;;;15.60;;
22812;SDS011;11573;51.334;3.244;2023-03-01T16:48:19;24.08;;;13.15;;
22812;SDS011;11573;51.334;3.244;2023-03-01T16:50:54;18.77;;;11.93;;
22812;SDS011;11573;51.334;3.244;2023-03-01T16:53:26;15.93;;;10.52;;
22812;SDS011;11573;51.334;3.244;2023-03-01T16:55:55;24.95;;;16.15;;
22812;SDS011;11573;51.334;3.244;2023-03-01T16:58:22;27.13;;;15.02;;
22812;SDS011;11573;51.334;3.244;2023-03-01T17:00:54;22.42;;;12.98;;
22812;SDS011;11573;51.334;3.244;2023-03-01T17:03:23;19.55;;;10.48;;
22812;SDS011;11573;51.334;3.244;2023-03-01T17:05:52;18.48;;;9.15;;
22812;SDS011;11573;51.334;3.244;2023-03-01T17:08:19;15.20;;;8.40;;
22812;SDS011;11573;51.334;3.244;2023-03-01T17:10:46;11.25;;;7.90;;
22812;SDS011;11573;51.334;3.244;2023-03-01T17:13:13;14.38;;;7.85;;
22812;SDS011;11573;51.334;3.244;2023-03-01T17:15:40;12.13;;;7.75;;
22812;SDS011;11573;51.334;3.244;2023-03-01T17:18:08;12.43;;;7.82;;
22812;SDS011;11573;51.334;3.244;2023-03-01T17:20:36;15.07;;;7.30;;